Time;durP1;ratioP1;P1;durP2;ratioP2;P2;SDS_P1;SDS_P2;PMS_P1;PMS_P2;Temp;Humidity;BMP_temperature;BMP_pressure;BME280_temperature;BME280_humidity;BME280_pressure;Samples;Min_cycle;Max_cycle;Signal;HPM_P1;HPM_P2
2024/01/14 00:00:30;;;;;;;17.70;10.60;;;;;;;-4.07;68.24;99698.30;105621;1258;64988;-69
2024/01/14 00:02:57;;;;;;;16.30;10.30;;;;;;;-4.06;68.30;99693.29;105669;1254;60453;-68
2024/01/14 00:05:25;;;;;;;15.30;10.10;;;;;;;-4.04;68.35;99693.77;105519;1257;63696;-65
2024/01/14 00:07:53;;;;;;;17.10;10.20;;;;;;;-4.01;68.47;99691.96;105555;1254;60377;-68
2024/01/14 00:10:20;;;;;;;18.30;10.70;;;;;;;-4.12;68.57;99691.42;106022;1255;60381;-69
2024/01/14 00:12:46;;;;;;;17.70;10.00;;;;;;;-4.58;69.70;99692.79;105550;1262;65312;-69
2024/01/14 00:15:14;;;;;;;19.90;11.60;;;;;;;-4.63;70.19;99687.79;105565;1258;60499;-69
2024/01/14 00:17:41;;;;;;;20.70;11.30;;;;;;;-4.20;69.49;99683.77;105675;1259;63860;-69
2024/01/14 00:20:09;;;;;;;18.50;10.90;;;;;;;-4.13;69.34;99679.27;105542;1258;60381;-68
2024/01/14 00:22:36;;;;;;;18.70;10.50;;;;;;;-4.14;69.46;99669.99;105719;1259;60387;-69
2024/01/14 00:25:03;;;;;;;18.70;11.10;;;;;;;-4.14;69.45;99655.05;105463;1260;65508;-68
2024/01/14 00:27:30;;;;;;;19.00;11.20;;;;;;;-4.14;69.57;99647.66;105696;1258;60453;-69
2024/01/14 00:29:58;;;;;;;17.10;10.40;;;;;;;-4.13;69.58;99649.86;105474;1258;64058;-69
2024/01/14 00:32:26;;;;;;;18.00;11.10;;;;;;;-4.12;69.69;99641.42;105610;1259;60424;-69
2024/01/14 00:34:52;;;;;;;21.60;11.70;;;;;;;-4.11;69.71;99636.38;105567;1256;60550;-69
2024/01/14 00:37:19;;;;;;;20.90;12.10;;;;;;;-4.10;69.70;99624.49;105942;1254;65087;-69
2024/01/14 00:39:46;;;;;;;19.10;11.20;;;;;;;-4.10;69.83;99620.38;105656;1255;60458;-69
2024/01/14 00:42:13;;;;;;;17.40;10.70;;;;;;;-4.12;69.86;99624.89;105913;1258;65543;-68
2024/01/14 00:44:43;;;;;;;21.00;11.10;;;;;;;-4.12;69.90;99630.58;105680;1261;60458;-68
2024/01/14 00:47:10;;;;;;;19.00;10.90;;;;;;;-4.13;69.93;99636.44;105226;1257;60536;-68
2024/01/14 00:49:37;;;;;;;19.20;11.30;;;;;;;-4.13;70.06;99635.42;105493;1259;65214;-69
2024/01/14 00:52:05;;;;;;;19.60;11.30;;;;;;;-4.12;70.09;99627.65;105059;1259;60424;-68
2024/01/14 00:54:32;;;;;;;20.00;11.90;;;;;;;-4.14;70.13;99621.52;105528;1260;62674;-68
2024/01/14 00:56:59;;;;;;;21.00;11.60;;;;;;;-4.15;70.22;99617.09;105471;1254;60461;-69
2024/01/14 00:59:26;;;;;;;19.30;11.70;;;;;;;-4.14;70.25;99614.66;105619;1253;60550;-68
2024/01/14 01:01:53;;;;;;;19.60;11.40;;;;;;;-4.14;70.28;99609.84;105727;1260;65215;-69
2024/01/14 01:04:20;;;;;;;21.50;12.00;;;;;;;-4.13;70.35;99607.23;105569;1259;60601;-68
2024/01/14 01:06:47;;;;;;;19.00;11.10;;;;;;;-4.11;70.40;99599.94;105574;1254;63695;-68
2024/01/14 01:09:14;;;;;;;18.00;11.50;;;;;;;-4.10;70.40;99603.02;105326;1254;60437;-67
2024/01/14 01:11:41;;;;;;;18.20;11.00;;;;;;;-4.11;70.44;99596.51;105372;1253;60346;-67
2024/01/14 01:14:08;;;;;;;20.70;12.60;;;;;;;-4.13;70.50;99590.38;105569;1260;65263;-68
2024/01/14 01:16:35;;;;;;;22.50;13.00;;;;;;;-4.14;70.55;99587.31;105283;1259;60547;-68
2024/01/14 01:19:02;;;;;;;19.70;11.80;;;;;;;-4.13;70.71;99588.32;105414;1254;62628;-69
2024/01/14 01:21:29;;;;;;;18.20;10.70;;;;;;;-4.11;70.63;99583.61;105445;1259;60444;-69
2024/01/14 01:23:56;;;;;;;19.20;10.50;;;;;;;-4.09;70.71;99580.77;105405;1253;60426;-68
2024/01/14 01:26:23;;;;;;;18.70;10.60;;;;;;;-4.09;70.71;99582.48;105502;1258;65155;-68
2024/01/14 01:28:50;;;;;;;19.00;11.20;;;;;;;-4.09;70.72;99580.95;105162;1260;60498;-68
2024/01/14 01:31:18;;;;;;;17.50;10.70;;;;;;;-4.08;70.79;99578.35;105381;1259;63976;-67
2024/01/14 01:33:58;;;;;;;20.30;11.50;;;;;;;-4.08;70.75;99571.98;105372;1254;60516;-67
2024/01/14 01:36:25;;;;;;;17.70;10.10;;;;;;;-4.08;70.85;99567.83;105411;1255;60450;-70
2024/01/14 01:38:52;;;;;;;18.30;11.30;;;;;;;-4.08;70.89;99563.53;105167;1259;65178;-68
2024/01/14 01:41:19;;;;;;;17.30;10.50;;;;;;;-4.07;70.88;99561.09;105680;1258;60375;-68
2024/01/14 01:43:46;;;;;;;21.70;12.10;;;;;;;-4.06;70.96;99556.95;105366;1259;63997;-68
2024/01/14 01:46:13;;;;;;;19.50;10.80;;;;;;;-4.03;70.99;99550.34;105412;1255;60497;-68
2024/01/14 01:48:40;;;;;;;19.10;10.90;;;;;;;-4.02;71.00;99545.85;105610;1254;60452;-67
2024/01/14 01:51:07;;;;;;;19.80;11.10;;;;;;;-4.03;71.04;99547.58;105589;1260;64131;-69
2024/01/14 01:53:34;;;;;;;22.00;13.60;;;;;;;-4.04;71.08;99541.09;105583;1255;60521;-66
2024/01/14 01:56:01;;;;;;;22.30;13.00;;;;;;;-4.03;71.09;99539.52;105567;1256;64053;-68
2024/01/14 01:58:28;;;;;;;43.70;26.00;;;;;;;-4.02;71.16;99536.55;105355;1269;60505;-69
2024/01/14 02:00:55;;;;;;;43.20;26.80;;;;;;;-4.02;71.16;99537.23;105515;1258;60482;-68
2024/01/14 02:03:22;;;;;;;27.10;17.40;;;;;;;-4.00;71.15;99542.16;105557;1258;65089;-68
2024/01/14 02:05:52;;;;;;;24.90;15.00;;;;;;;-3.99;71.17;99548.14;105427;1254;60549;-69
2024/01/14 02:08:20;;;;;;;21.40;13.00;;;;;;;-3.99;71.16;99545.89;105522;1253;63000;-68
2024/01/14 02:10:47;;;;;;;24.00;14.50;;;;;;;-3.98;71.09;99538.98;105851;1255;60544;-68
2024/01/14 02:13:14;;;;;;;20.50;12.50;;;;;;;-3.98;71.21;99534.51;105337;1255;60432;-68
2024/01/14 02:15:41;;;;;;;18.50;12.00;;;;;;;-3.98;71.23;99535.72;105130;1254;65113;-68
2024/01/14 02:18:08;;;;;;;19.60;13.10;;;;;;;-3.97;71.29;99535.34;105318;1259;60425;-68
2024/01/14 02:20:35;;;;;;;18.70;11.80;;;;;;;-3.95;71.32;99530.83;105300;1261;63924;-69
2024/01/14 02:23:04;;;;;;;18.40;11.30;;;;;;;-3.93;71.25;99528.88;105474;1254;60402;-69
2024/01/14 02:25:31;;;;;;;19.30;11.80;;;;;;;-3.92;71.33;99525.74;105471;1259;60465;-68
2024/01/14 02:27:58;;;;;;;17.70;11.00;;;;;;;-3.92;71.27;99526.07;105438;1257;65290;-68
2024/01/14 02:30:25;;;;;;;17.60;10.30;;;;;;;-3.91;71.32;99524.64;105242;1259;60534;-69
2024/01/14 02:32:54;;;;;;;20.60;11.90;;;;;;;-3.89;71.30;99523.05;105486;1259;64086;-69
2024/01/14 02:35:21;;;;;;;22.00;12.90;;;;;;;-3.89;71.33;99518.20;105337;1255;60506;-69
2024/01/14 02:37:48;;;;;;;17.60;11.60;;;;;;;-3.88;71.29;99512.33;105528;1257;62089;-69
2024/01/14 02:40:16;;;;;;;18.10;11.80;;;;;;;-3.87;71.25;99510.40;105596;1257;65422;-69
2024/01/14 02:42:43;;;;;;;21.30;13.30;;;;;;;-3.87;71.25;99505.60;105522;1255;60556;-68
2024/01/14 02:45:10;;;;;;;19.70;11.70;;;;;;;-3.88;71.34;99503.20;105324;1260;63858;-70
2024/01/14 02:47:38;;;;;;;19.10;12.00;;;;;;;-3.89;71.37;99497.92;105679;1255;60520;-69
2024/01/14 02:50:06;;;;;;;19.80;11.60;;;;;;;-3.89;71.35;99495.88;105654;1257;60429;-67
2024/01/14 02:52:33;;;;;;;23.20;13.90;;;;;;;-3.90;71.40;99495.20;105519;1261;63764;-68
2024/01/14 02:55:00;;;;;;;20.80;12.50;;;;;;;-3.89;71.53;99498.44;105473;1254;60556;-66
2024/01/14 02:57:27;;;;;;;21.20;12.80;;;;;;;-3.88;71.60;99497.34;105539;1254;63917;-67
2024/01/14 02:59:54;;;;;;;22.50;13.30;;;;;;;-3.86;71.46;99490.95;106102;1254;60482;-68
2024/01/14 03:02:22;;;;;;;21.90;12.60;;;;;;;-3.85;71.49;99490.08;105493;1260;60463;-69
2024/01/14 03:04:48;;;;;;;21.40;13.10;;;;;;;-3.85;71.58;99487.83;105375;1254;64673;-67
2024/01/14 03:07:15;;;;;;;21.50;13.20;;;;;;;-3.83;71.51;99482.05;105752;1254;60731;-68
2024/01/14 03:09:42;;;;;;;23.30;12.50;;;;;;;-3.94;71.66;99478.64;105606;1255;63780;-68
2024/01/14 03:12:09;;;;;;;20.70;12.20;;;;;;;-4.39;72.76;99479.52;105244;1254;60628;-69
2024/01/14 03:14:36;;;;;;;21.40;12.00;;;;;;;-4.50;73.31;99481.25;105646;1254;61159;-67
2024/01/14 03:17:04;;;;;;;21.70;12.20;;;;;;;-4.52;73.57;99482.70;105692;1254;64088;-68
2024/01/14 03:19:31;;;;;;;21.70;13.00;;;;;;;-4.54;73.85;99485.83;105503;1254;60449;-68
2024/01/14 03:22:00;;;;;;;22.60;12.20;;;;;;;-4.55;74.06;99481.71;105388;1254;63848;-68
2024/01/14 03:24:26;;;;;;;21.90;11.50;;;;;;;-4.55;74.17;99482.61;105581;1254;60537;-68
2024/01/14 03:26:54;;;;;;;23.10;11.90;;;;;;;-4.56;74.32;99481.09;105473;1257;60492;-68
2024/01/14 03:29:20;;;;;;;21.10;12.80;;;;;;;-4.56;74.56;99476.13;105372;1254;65221;-69
2024/01/14 03:31:47;;;;;;;23.00;12.40;;;;;;;-4.56;74.65;99476.95;105441;1254;60522;-68
2024/01/14 03:34:14;;;;;;;24.30;13.60;;;;;;;-4.56;74.78;99474.05;105265;1258;63831;-68
2024/01/14 03:36:41;;;;;;;22.70;12.70;;;;;;;-4.55;74.86;99476.59;105476;1261;60435;-69
2024/01/14 03:39:08;;;;;;;22.20;13.20;;;;;;;-4.54;74.99;99474.48;105441;1254;60464;-69
2024/01/14 03:41:35;;;;;;;23.80;13.20;;;;;;;-4.53;75.16;99474.14;105400;1258;65191;-68
2024/01/14 03:44:02;;;;;;;23.30;13.10;;;;;;;-4.52;75.29;99474.63;105461;1257;60357;-69
2024/01/14 03:46:29;;;;;;;24.60;13.60;;;;;;;-4.52;75.33;99467.91;105616;1258;65422;-69
2024/01/14 03:48:56;;;;;;;24.40;13.20;;;;;;;-4.51;75.52;99465.63;105408;1257;60380;-69
2024/01/14 03:51:24;;;;;;;24.70;12.80;;;;;;;-4.49;75.57;99463.35;105902;1254;60438;-68
2024/01/14 03:53:50;;;;;;;27.20;15.00;;;;;;;-4.48;75.68;99459.17;106035;1258;65072;-67
2024/01/14 03:56:17;;;;;;;25.20;13.90;;;;;;;-4.46;75.66;99454.48;105491;1258;60528;-67
2024/01/14 03:58:44;;;;;;;30.90;19.80;;;;;;;-4.44;75.74;99448.23;105364;1254;63903;-69
2024/01/14 04:01:17;;;;;;;31.10;18.70;;;;;;;-4.43;75.80;99443.05;105452;1254;60623;-69
2024/01/14 04:03:44;;;;;;;23.20;13.20;;;;;;;-4.42;75.79;99439.40;105402;1254;60549;-70
2024/01/14 04:06:11;;;;;;;25.10;14.10;;;;;;;-4.41;75.96;99434.19;105627;1254;65067;-69
2024/01/14 04:08:39;;;;;;;24.40;14.80;;;;;;;-4.39;76.01;99429.83;105919;1254;60368;-68
2024/01/14 04:11:05;;;;;;;31.30;16.70;;;;;;;-4.37;76.02;99424.08;105634;1258;63823;-67
2024/01/14 04:13:32;;;;;;;27.30;14.80;;;;;;;-4.35;76.08;99421.45;105763;1254;60454;-68
2024/01/14 04:15:59;;;;;;;27.10;15.00;;;;;;;-4.34;76.13;99419.86;105433;1254;60411;-67
2024/01/14 04:18:29;;;;;;;28.40;14.60;;;;;;;-4.32;76.19;99415.53;105664;1257;65204;-67
2024/01/14 04:20:57;;;;;;;25.00;14.20;;;;;;;-4.31;76.20;99413.59;105348;1254;60486;-67
2024/01/14 04:23:24;;;;;;;26.60;14.00;;;;;;;-4.30;76.26;99412.52;105747;1256;62524;-68
2024/01/14 04:25:51;;;;;;;29.10;14.10;;;;;;;-4.28;76.34;99411.45;105445;1254;60457;-68
2024/01/14 04:28:18;;;;;;;26.80;14.70;;;;;;;-4.27;76.45;99417.40;105541;1254;60550;-67
2024/01/14 04:30:45;;;;;;;27.00;15.00;;;;;;;-4.25;76.44;99416.83;105596;1259;65197;-68
2024/01/14 04:33:12;;;;;;;26.60;14.60;;;;;;;-4.23;76.50;99415.73;105459;1260;60485;-68
2024/01/14 04:35:39;;;;;;;27.50;16.00;;;;;;;-4.21;76.50;99411.17;105804;1254;64011;-69
2024/01/14 04:38:06;;;;;;;28.50;15.60;;;;;;;-4.19;76.59;99409.38;105610;1254;60362;-68
2024/01/14 04:40:33;;;;;;;26.90;14.90;;;;;;;-4.17;76.59;99410.52;105353;1254;60544;-67
2024/01/14 04:43:00;;;;;;;25.40;14.20;;;;;;;-4.15;76.61;99408.92;105337;1257;65244;-68
2024/01/14 04:45:27;;;;;;;28.20;14.80;;;;;;;-4.13;76.65;99404.20;105365;1254;60523;-67
2024/01/14 04:47:54;;;;;;;27.10;14.70;;;;;;;-4.10;76.65;99403.92;105243;1254;64075;-67
2024/01/14 04:50:21;;;;;;;24.80;13.90;;;;;;;-4.07;76.64;99407.23;105539;1254;60416;-68
2024/01/14 04:52:48;;;;;;;27.60;14.70;;;;;;;-4.04;76.65;99408.86;105594;1254;60546;-68
2024/01/14 04:55:15;;;;;;;25.30;14.50;;;;;;;-4.02;76.74;99408.27;105727;1254;65057;-68
2024/01/14 04:57:42;;;;;;;27.10;15.30;;;;;;;-3.99;76.69;99406.11;105858;1254;60603;-68
2024/01/14 05:00:12;;;;;;;26.30;15.20;;;;;;;-3.96;76.72;99404.64;105652;1254;64241;-71
2024/01/14 05:02:39;;;;;;;26.20;14.10;;;;;;;-3.95;76.73;99402.52;105975;1254;60613;-71
2024/01/14 05:05:06;;;;;;;25.50;14.70;;;;;;;-3.93;76.72;99400.92;105800;1254;60469;-71
2024/01/14 05:07:33;;;;;;;23.50;13.40;;;;;;;-3.92;76.79;99403.61;105437;1254;67153;-70
2024/01/14 05:10:00;;;;;;;22.90;13.60;;;;;;;-3.90;76.81;99405.27;105868;1254;60543;-69
2024/01/14 05:12:27;;;;;;;21.70;12.90;;;;;;;-3.88;76.78;99403.11;105407;1256;63943;-69
2024/01/14 05:14:54;;;;;;;26.30;14.40;;;;;;;-3.86;76.79;99402.88;105349;1254;60435;-68
2024/01/14 05:17:21;;;;;;;25.30;14.40;;;;;;;-3.84;76.82;99402.32;105519;1254;60489;-68
2024/01/14 05:19:48;;;;;;;27.40;14.70;;;;;;;-3.84;76.80;99396.95;105820;1254;63790;-69
2024/01/14 05:22:15;;;;;;;26.00;15.10;;;;;;;-3.82;76.83;99392.77;105598;1254;60526;-67
2024/01/14 05:24:42;;;;;;;26.20;15.20;;;;;;;-3.80;76.80;99392.17;105515;1257;62881;-66
2024/01/14 05:27:13;;;;;;;26.00;13.90;;;;;;;-3.79;76.83;99390.94;105823;1253;60343;-68
2024/01/14 05:29:41;;;;;;;26.60;15.00;;;;;;;-3.78;76.83;99387.46;105567;1258;60443;-67
2024/01/14 05:32:11;;;;;;;26.40;14.70;;;;;;;-3.77;76.82;99385.00;105687;1254;64184;-69
2024/01/14 05:34:38;;;;;;;27.70;15.20;;;;;;;-3.75;76.83;99386.66;105505;1259;60556;-69
2024/01/14 05:37:05;;;;;;;26.00;15.60;;;;;;;-3.73;76.80;99386.42;105880;1254;64120;-68
2024/01/14 05:39:33;;;;;;;25.60;14.40;;;;;;;-3.71;76.83;99383.25;105604;1258;60412;-70
2024/01/14 05:42:00;;;;;;;26.20;14.90;;;;;;;-3.69;76.79;99379.73;105537;1254;60488;-69
2024/01/14 05:44:27;;;;;;;27.20;15.70;;;;;;;-3.67;76.81;99380.35;105468;1255;65155;-68
2024/01/14 05:46:54;;;;;;;25.10;14.50;;;;;;;-3.66;76.78;99377.02;105327;1253;60413;-67
2024/01/14 05:49:21;;;;;;;26.00;15.20;;;;;;;-3.63;76.81;99375.05;105512;1257;64798;-68
2024/01/14 05:51:51;;;;;;;27.70;15.90;;;;;;;-3.61;76.87;99373.05;105569;1254;60458;-67
2024/01/14 05:54:18;;;;;;;24.30;13.90;;;;;;;-3.58;76.80;99367.95;105480;1258;60522;-69
2024/01/14 05:56:45;;;;;;;26.80;15.80;;;;;;;-3.56;76.86;99363.73;105516;1254;63674;-70
2024/01/14 05:59:14;;;;;;;28.60;16.40;;;;;;;-3.52;76.83;99362.07;105676;1254;60435;-69
2024/01/14 06:01:41;;;;;;;25.20;15.80;;;;;;;-3.49;76.82;99354.70;105513;1254;62825;-69
2024/01/14 06:04:08;;;;;;;26.30;15.40;;;;;;;-3.48;76.85;99358.59;105823;1254;60483;-70
2024/01/14 06:06:35;;;;;;;25.10;14.90;;;;;;;-3.44;76.80;99358.15;105540;1254;60465;-67
2024/01/14 06:09:03;;;;;;;23.90;14.70;;;;;;;-3.41;76.80;99357.51;105574;1258;65129;-70
2024/01/14 06:11:30;;;;;;;24.30;14.30;;;;;;;-3.38;76.84;99353.23;105331;1261;60542;-72
2024/01/14 06:13:57;;;;;;;25.90;15.30;;;;;;;-3.34;76.83;99355.16;105291;1256;63864;-68
2024/01/14 06:16:27;;;;;;;24.40;14.90;;;;;;;-3.31;76.89;99353.68;105373;1254;60426;-69
2024/01/14 06:18:54;;;;;;;22.80;14.90;;;;;;;-3.29;76.86;99354.44;105597;1254;60477;-69
2024/01/14 06:21:22;;;;;;;23.00;14.20;;;;;;;-3.27;76.80;99355.73;105696;1254;63881;-67
2024/01/14 06:23:52;;;;;;;22.70;14.40;;;;;;;-3.25;76.84;99356.52;105615;1257;60531;-69
2024/01/14 06:26:19;;;;;;;24.90;16.40;;;;;;;-3.23;76.75;99355.41;105842;1255;63915;-69
2024/01/14 06:28:46;;;;;;;25.10;16.30;;;;;;;-3.21;76.80;99349.97;105617;1254;60427;-69
2024/01/14 06:31:17;;;;;;;26.30;15.70;;;;;;;-3.19;76.75;99347.14;105654;1258;60458;-69
2024/01/14 06:33:44;;;;;;;25.40;15.70;;;;;;;-3.18;76.75;99342.82;105542;1256;67050;-70
2024/01/14 06:36:12;;;;;;;24.60;15.40;;;;;;;-3.16;76.72;99340.00;105571;1255;59782;-68
2024/01/14 06:38:39;;;;;;;24.70;15.60;;;;;;;-3.14;76.70;99335.78;105600;1254;63833;-69
2024/01/14 06:41:07;;;;;;;25.80;15.30;;;;;;;-3.11;76.72;99334.27;105459;1254;60460;-69
2024/01/14 06:43:38;;;;;;;23.70;15.00;;;;;;;-3.08;76.74;99331.90;106233;1254;60432;-70
2024/01/14 06:46:05;;;;;;;23.70;16.00;;;;;;;-3.04;76.71;99332.09;105591;1254;64862;-70
2024/01/14 06:48:32;;;;;;;24.20;14.30;;;;;;;-3.01;76.77;99330.73;105542;1254;60517;-68
2024/01/14 06:51:01;;;;;;;21.30;14.30;;;;;;;-2.96;76.72;99334.53;105460;1255;63877;-72
2024/01/14 06:53:28;;;;;;;22.30;14.70;;;;;;;-2.94;76.74;99334.95;105702;1254;60458;-70
2024/01/14 06:55:55;;;;;;;23.30;14.50;;;;;;;-2.92;76.71;99333.64;105508;1254;60316;-73
2024/01/14 06:58:22;;;;;;;20.70;13.20;;;;;;;-2.88;76.67;99331.28;105555;1260;65196;-72
2024/01/14 07:00:50;;;;;;;21.20;14.00;;;;;;;-2.86;76.65;99336.20;105373;1254;60518;-74
2024/01/14 07:03:17;;;;;;;21.30;13.70;;;;;;;-2.84;76.69;99333.67;105578;1254;62627;-76
2024/01/14 07:05:44;;;;;;;22.90;13.60;;;;;;;-2.81;76.71;99335.09;105906;1254;60540;-73
2024/01/14 07:08:11;;;;;;;19.30;14.00;;;;;;;-2.78;76.63;99332.91;105741;1257;60806;-74
2024/01/14 07:10:38;;;;;;;20.70;14.40;;;;;;;-2.75;76.66;99327.26;108976;1253;65205;-69
2024/01/14 07:13:05;;;;;;;21.80;14.30;;;;;;;-2.71;76.65;99323.98;108923;1254;58256;-70
2024/01/14 07:15:32;;;;;;;20.90;14.70;;;;;;;-2.67;76.56;99324.88;109159;1254;63064;-68
2024/01/14 07:17:59;;;;;;;21.20;14.70;;;;;;;-2.63;76.53;99327.11;109018;1254;58278;-69
2024/01/14 07:20:27;;;;;;;23.10;16.30;;;;;;;-2.59;76.50;99322.47;109210;1254;58296;-69
2024/01/14 07:22:54;;;;;;;58.20;33.90;;;;;;;-2.55;76.46;99326.59;109214;1254;65211;-70
2024/01/14 07:25:21;;;;;;;30.80;20.40;;;;;;;-2.51;76.40;99325.55;107840;1255;60444;-71
2024/01/14 07:27:48;;;;;;;30.60;20.00;;;;;;;-2.47;76.37;99322.27;105655;1255;63915;-73
2024/01/14 07:30:18;;;;;;;21.40;16.00;;;;;;;-2.44;76.31;99315.25;105455;1254;60597;-69
2024/01/14 07:32:45;;;;;;;19.50;14.60;;;;;;;-2.42;76.29;99315.18;105903;1254;60427;-70
2024/01/14 07:35:12;;;;;;;22.90;16.00;;;;;;;-2.40;76.26;99314.42;105587;1260;65284;-69
2024/01/14 07:37:39;;;;;;;22.30;15.50;;;;;;;-2.40;76.27;99316.11;105649;1254;60453;-70
2024/01/14 07:40:07;;;;;;;31.90;22.40;;;;;;;-2.39;76.29;99314.36;105496;1255;62632;-70
2024/01/14 07:42:34;;;;;;;33.70;21.80;;;;;;;-2.38;76.28;99313.95;105594;1254;60893;-69
2024/01/14 07:45:02;;;;;;;29.30;19.40;;;;;;;-2.36;76.30;99313.67;105601;1254;60446;-69
2024/01/14 07:47:30;;;;;;;21.20;15.80;;;;;;;-2.32;76.25;99315.79;105584;1258;65226;-69
2024/01/14 07:49:57;;;;;;;25.30;18.40;;;;;;;-2.31;76.23;99314.70;105503;1254;60552;-70
2024/01/14 07:52:25;;;;;;;19.50;13.90;;;;;;;-2.29;76.25;99313.40;105622;1254;64006;-70
2024/01/14 07:54:52;;;;;;;21.50;14.90;;;;;;;-2.28;76.25;99314.05;105652;1253;60448;-70
2024/01/14 07:57:19;;;;;;;24.10;16.20;;;;;;;-2.27;76.21;99310.73;105599;1254;60543;-69
2024/01/14 07:59:46;;;;;;;22.30;15.10;;;;;;;-2.26;76.19;99309.30;105625;1253;65275;-69
2024/01/14 08:02:14;;;;;;;20.30;15.20;;;;;;;-2.24;76.19;99307.14;105424;1254;60536;-69
2024/01/14 08:04:41;;;;;;;25.30;16.60;;;;;;;-2.21;76.16;99304.11;105508;1254;64119;-70
2024/01/14 08:07:08;;;;;;;20.80;14.70;;;;;;;-2.18;76.21;99302.24;105634;1254;60533;-70
2024/01/14 08:09:36;;;;;;;23.50;15.70;;;;;;;-2.17;76.18;99302.52;105585;1257;60423;-69
2024/01/14 08:12:04;;;;;;;25.40;18.30;;;;;;;-2.16;76.17;99309.89;105565;1257;65195;-69
2024/01/14 08:14:30;;;;;;;25.40;18.60;;;;;;;-2.14;76.14;99307.90;105564;1254;60428;-70
2024/01/14 08:16:57;;;;;;;19.80;14.90;;;;;;;-2.11;76.17;99311.08;105573;1254;63948;-69
2024/01/14 08:19:24;;;;;;;22.50;16.30;;;;;;;-2.08;76.14;99310.25;105292;1260;60530;-70
2024/01/14 08:21:51;;;;;;;39.70;23.30;;;;;;;-2.05;76.20;99307.99;105449;1254;60443;-70
2024/01/14 08:24:20;;;;;;;32.40;21.00;;;;;;;-2.01;76.20;99307.02;105535;1258;64917;-70
2024/01/14 08:26:47;;;;;;;24.70;17.50;;;;;;;-1.99;76.20;99307.77;105461;1259;60562;-68
2024/01/14 08:29:14;;;;;;;25.60;18.20;;;;;;;-1.97;76.19;99306.98;105636;1254;64073;-70
2024/01/14 08:31:56;;;;;;;23.90;17.70;;;;;;;-1.96;76.14;99305.55;105547;1259;60458;-71
2024/01/14 08:34:24;;;;;;;24.00;15.90;;;;;;;-1.93;76.23;99301.98;105593;1254;60553;-69
2024/01/14 08:36:51;;;;;;;101.50;45.60;;;;;;;-1.90;76.18;99299.08;105657;1257;65229;-70
2024/01/14 08:39:17;;;;;;;60.40;32.10;;;;;;;-1.87;76.23;99293.39;105528;1254;60543;-69
2024/01/14 08:41:45;;;;;;;26.30;18.90;;;;;;;-1.83;76.25;99289.05;105544;1254;63850;-70
2024/01/14 08:44:11;;;;;;;21.60;16.20;;;;;;;-1.80;76.22;99289.61;105896;1254;60816;-72
2024/01/14 08:46:40;;;;;;;22.50;16.70;;;;;;;-1.77;76.26;99287.05;105553;1253;60540;-69
2024/01/14 08:49:07;;;;;;;20.50;15.30;;;;;;;-1.73;76.23;99286.39;105457;1254;64015;-70
2024/01/14 08:51:35;;;;;;;114.90;43.40;;;;;;;-1.71;76.14;99282.83;105674;1254;60489;-69
2024/01/14 08:54:02;;;;;;;27.50;17.90;;;;;;;-1.69;76.08;99277.38;105316;1254;65368;-69
2024/01/14 08:56:29;;;;;;;64.20;32.90;;;;;;;-1.29;75.46;99274.08;105507;1254;60548;-69
2024/01/14 08:58:59;;;;;;;23.10;17.30;;;;;;;-1.02;74.60;99272.24;105543;1254;60792;-71
2024/01/14 09:01:33;;;;;;;21.80;16.10;;;;;;;-0.94;74.24;99275.30;105608;1255;65064;-70
2024/01/14 09:04:00;;;;;;;23.30;16.20;;;;;;;-0.90;73.99;99275.05;105600;1258;60557;-69
2024/01/14 09:06:28;;;;;;;22.30;16.50;;;;;;;-0.90;73.86;99275.94;105365;1254;63992;-69
2024/01/14 09:08:55;;;;;;;21.90;16.50;;;;;;;-0.89;73.79;99271.41;105138;1256;60480;-69
2024/01/14 09:11:22;;;;;;;51.00;29.90;;;;;;;-0.88;73.67;99269.96;105618;1254;60480;-67
2024/01/14 09:13:49;;;;;;;24.40;17.00;;;;;;;-0.86;73.58;99268.50;105575;1257;66299;-68
2024/01/14 09:16:16;;;;;;;22.40;17.20;;;;;;;-0.84;73.55;99261.81;105623;1254;60469;-68
2024/01/14 09:18:43;;;;;;;21.10;15.10;;;;;;;-0.80;73.50;99260.61;105608;1254;64096;-69
2024/01/14 09:21:11;;;;;;;21.50;15.00;;;;;;;-0.76;73.48;99258.52;105719;1254;60350;-68
2024/01/14 09:23:38;;;;;;;21.20;15.60;;;;;;;-0.73;73.41;99255.93;105707;1253;60527;-69
2024/01/14 09:26:05;;;;;;;20.40;15.70;;;;;;;-0.71;73.43;99254.05;105588;1257;65218;-68
2024/01/14 09:28:32;;;;;;;22.20;16.40;;;;;;;-0.67;73.44;99254.05;105614;1254;60472;-69
2024/01/14 09:30:59;;;;;;;21.70;16.70;;;;;;;-0.64;73.40;99251.82;105698;1257;63903;-69
2024/01/14 09:33:29;;;;;;;22.20;16.60;;;;;;;-0.62;73.32;99249.81;105631;1254;60435;-68
2024/01/14 09:35:57;;;;;;;25.00;18.00;;;;;;;-0.61;73.28;99243.16;105435;1253;60442;-68
2024/01/14 09:38:26;;;;;;;19.50;15.50;;;;;;;-0.58;73.28;99239.42;105602;1257;66847;-69
2024/01/14 09:40:57;;;;;;;18.70;14.50;;;;;;;-0.57;73.17;99236.77;105611;1254;60492;-71
2024/01/14 09:43:24;;;;;;;19.70;14.70;;;;;;;-0.55;73.21;99232.00;105352;1260;63839;-69
2024/01/14 09:45:51;;;;;;;20.30;15.40;;;;;;;-0.54;73.07;99225.58;105499;1254;60397;-69
2024/01/14 09:48:18;;;;;;;19.50;15.20;;;;;;;-0.55;73.03;99227.31;105516;1254;60451;-69
2024/01/14 09:50:46;;;;;;;22.80;15.80;;;;;;;-0.54;72.98;99226.94;105596;1259;65129;-68
2024/01/14 09:53:14;;;;;;;20.50;15.70;;;;;;;-0.54;72.95;99222.77;105555;1254;60557;-69
2024/01/14 09:55:41;;;;;;;23.70;16.80;;;;;;;-0.53;72.96;99223.08;105666;1254;66450;-69
2024/01/14 09:58:09;;;;;;;21.40;15.70;;;;;;;-0.53;72.88;99219.97;105608;1253;63876;-69
2024/01/14 10:00:38;;;;;;;19.40;15.00;;;;;;;-0.53;72.80;99223.23;105696;1254;60438;-68
2024/01/14 10:03:05;;;;;;;20.10;15.40;;;;;;;-0.53;72.73;99222.23;105287;1254;63655;-69
2024/01/14 10:05:59;;;;;;;24.70;16.40;;;;;;;-0.53;72.69;99219.29;105703;1260;60662;-70
2024/01/14 10:08:28;;;;;;;23.60;17.60;;;;;;;-0.51;72.62;99215.85;105439;1254;63925;-71
2024/01/14 10:10:57;;;;;;;25.20;18.30;;;;;;;-0.50;72.57;99215.26;105706;1253;60445;-69
2024/01/14 10:13:34;;;;;;;27.90;20.20;;;;;;;-0.47;72.58;99207.37;105780;1253;60542;-69
2024/01/14 10:16:02;;;;;;;19.60;15.50;;;;;;;-0.44;72.56;99203.73;105614;1257;66947;-69
2024/01/14 10:18:51;;;;;;;20.50;15.10;;;;;;;-0.42;72.54;99199.83;105656;1254;60489;-68
2024/01/14 10:21:18;;;;;;;20.60;15.60;;;;;;;-0.40;72.61;99195.25;105292;1255;63164;-67
2024/01/14 10:23:45;;;;;;;20.80;15.70;;;;;;;-0.37;72.48;99194.02;105556;1254;60422;-68
2024/01/14 10:26:12;;;;;;;23.40;17.70;;;;;;;-0.36;72.51;99190.31;105584;1255;60840;-69
2024/01/14 10:28:39;;;;;;;19.50;14.60;;;;;;;-0.34;72.45;99192.30;105655;1255;65023;-68
2024/01/14 10:31:06;;;;;;;21.50;15.70;;;;;;;-0.32;72.36;99188.91;105636;1254;60493;-69
2024/01/14 10:33:34;;;;;;;20.50;15.40;;;;;;;-0.32;72.32;99189.91;105711;1255;62885;-69
2024/01/14 10:36:07;;;;;;;25.30;18.50;;;;;;;-0.31;72.30;99185.04;105674;1254;60438;-68
2024/01/14 10:38:34;;;;;;;21.10;15.50;;;;;;;-0.32;72.27;99185.06;105613;1254;60449;-68
2024/01/14 10:41:03;;;;;;;19.60;14.30;;;;;;;-0.32;72.18;99184.59;105683;1257;75205;-66
2024/01/14 10:43:33;;;;;;;19.20;14.60;;;;;;;-0.34;72.16;99179.84;105481;1254;60547;-68
2024/01/14 10:46:00;;;;;;;18.50;14.30;;;;;;;-0.34;72.17;99178.80;105375;1260;65926;-68
2024/01/14 10:48:27;;;;;;;21.10;14.80;;;;;;;-0.35;72.20;99176.79;105338;1253;60482;-68
2024/01/14 10:50:57;;;;;;;35.40;23.00;;;;;;;-0.36;72.17;99176.66;105611;1254;60455;-68
2024/01/14 10:53:26;;;;;;;21.10;15.00;;;;;;;-0.35;72.17;99173.14;105619;1257;66881;-69
2024/01/14 10:56:03;;;;;;;18.70;13.70;;;;;;;-0.35;72.10;99167.25;105327;1254;60893;-67
2024/01/14 10:58:31;;;;;;;19.10;14.40;;;;;;;-0.35;72.15;99164.16;105643;1257;65744;-69
2024/01/14 11:01:00;;;;;;;20.20;14.90;;;;;;;-0.33;72.23;99162.15;105303;1254;293659;-66
2024/01/14 11:03:28;;;;;;;20.00;14.00;;;;;;;-0.31;72.23;99157.01;105589;1254;60572;-67
2024/01/14 11:05:55;;;;;;;18.10;13.60;;;;;;;-0.28;72.11;99154.48;106007;1254;67059;-69
2024/01/14 11:08:23;;;;;;;20.70;16.10;;;;;;;-0.31;72.14;99149.22;105503;1254;60551;-69
2024/01/14 11:10:50;;;;;;;20.30;16.20;;;;;;;-0.32;72.08;99151.85;105423;1256;72924;-69